createdAt,value
2023-04-19T00:01:30.855Z,103474.06
2023-04-19T00:03:58.349Z,103476.78
2023-04-19T00:06:26.249Z,103471.53
2023-04-19T00:08:53.097Z,103475.81
2023-04-19T00:11:19.902Z,103472.97
2023-04-19T00:13:46.527Z,103469.38
2023-04-19T00:16:13.198Z,103468.47
2023-04-19T00:18:39.929Z,103474.56
2023-04-19T00:21:06.773Z,103465.75
2023-04-19T00:23:33.411Z,103471.03
2023-04-19T00:26:03.073Z,103469.22
2023-04-19T00:28:29.744Z,103461.31
2023-04-19T00:30:56.677Z,103461.38
2023-04-19T00:33:23.385Z,103464.88
2023-04-19T00:35:50.131Z,103466.44
2023-04-19T00:38:16.844Z,103460.13
2023-04-19T00:40:43.491Z,103467.91
2023-04-19T00:43:10.157Z,103459.75
2023-04-19T00:45:37.006Z,103460.50
2023-04-19T00:48:03.940Z,103459.63
2023-04-19T00:50:31.170Z,103466.47
2023-04-19T00:52:58.050Z,103468.16
2023-04-19T00:55:24.933Z,103463.72
2023-04-19T00:57:52.272Z,103465.28
2023-04-19T01:00:20.093Z,103459.00
2023-04-19T01:02:47.993Z,103464.16
2023-04-19T01:05:15.174Z,103468.50
2023-04-19T01:07:43.545Z,103465.81
2023-04-19T01:10:10.702Z,103458.69
2023-04-19T01:12:37.465Z,103463.09
2023-04-19T01:15:04.469Z,103465.63
2023-04-19T01:17:33.290Z,103467.38
2023-04-19T01:20:01.204Z,103463.78
2023-04-19T01:22:28.486Z,103459.38
2023-04-19T01:24:55.101Z,103464.53
2023-04-19T01:27:21.922Z,103468.91
2023-04-19T01:29:48.548Z,103467.16
2023-04-19T01:32:15.267Z,103472.44
2023-04-19T01:34:42.967Z,103464.63
2023-04-19T01:37:09.685Z,103466.50
2023-04-19T01:39:36.402Z,103462.88
2023-04-19T01:42:03.799Z,103466.25
2023-04-19T01:44:31.049Z,103462.44
2023-04-19T01:46:57.828Z,103463.25
2023-04-19T01:49:24.629Z,103469.50
2023-04-19T01:51:51.338Z,103462.47
2023-04-19T01:54:18.207Z,103470.22
2023-04-19T01:56:45.175Z,103465.66
2023-04-19T01:59:11.779Z,103475.28
2023-04-19T02:01:38.434Z,103471.81
2023-04-19T02:04:05.274Z,103470.97
2023-04-19T02:06:32.010Z,103475.38
2023-04-19T02:08:58.985Z,103473.72
2023-04-19T02:11:25.619Z,103472.75
2023-04-19T02:13:52.336Z,103465.53
2023-04-19T02:16:19.174Z,103466.28
2023-04-19T02:18:46.936Z,103477.50
2023-04-19T02:21:13.899Z,103471.31
2023-04-19T02:23:40.563Z,103482.63
2023-04-19T02:26:07.230Z,103475.59
2023-04-19T02:28:33.892Z,103478.22
2023-04-19T02:31:06.034Z,103472.00
2023-04-19T02:33:32.665Z,103476.16
2023-04-19T02:35:59.323Z,103476.13
2023-04-19T02:38:25.999Z,103471.66
2023-04-19T02:40:52.630Z,103469.91
2023-04-19T02:43:19.254Z,103474.38
2023-04-19T02:45:46.076Z,103467.34
2023-04-19T02:48:13.005Z,103465.44
2023-04-19T02:50:39.813Z,103459.16
2023-04-19T02:53:07.021Z,103463.41
2023-04-19T02:55:33.792Z,103464.06
2023-04-19T02:58:00.485Z,103462.28
2023-04-19T03:00:27.213Z,103463.09
2023-04-19T03:02:53.998Z,103456.91
2023-04-19T03:05:20.901Z,103463.06
2023-04-19T03:07:47.538Z,103465.72
2023-04-19T03:10:14.211Z,103459.47
2023-04-19T03:12:40.847Z,103460.22
2023-04-19T03:15:08.554Z,103459.25
2023-04-19T03:17:35.930Z,103461.88
2023-04-19T03:20:02.856Z,103458.34
2023-04-19T03:22:29.485Z,103460.88
2023-04-19T03:24:56.106Z,103460.06
2023-04-19T03:27:22.736Z,103466.16
2023-04-19T03:29:49.371Z,103460.00
2023-04-19T03:32:15.990Z,103464.34
2023-04-19T03:34:42.661Z,103461.59
2023-04-19T03:37:09.341Z,103464.09
2023-04-19T03:39:36.001Z,103465.78
2023-04-19T03:42:03.050Z,103468.38
2023-04-19T03:44:33.202Z,103469.13
2023-04-19T03:46:59.943Z,103471.00
2023-04-19T03:49:26.646Z,103467.38
2023-04-19T03:51:53.316Z,103476.06
2023-04-19T03:54:20.125Z,103475.97
2023-04-19T03:56:46.791Z,103475.97
2023-04-19T03:59:13.406Z,103470.63
2023-04-19T04:01:42.453Z,103479.41
2023-04-19T04:04:09.565Z,103471.66
2023-04-19T04:06:36.363Z,103471.72
2023-04-19T04:09:03.079Z,103491.00
2023-04-19T04:11:29.761Z,103484.00
2023-04-19T04:13:56.574Z,103480.41
2023-04-19T04:16:23.347Z,103483.84
2023-04-19T04:18:50.066Z,103474.16
2023-04-19T04:21:16.719Z,103478.59
2023-04-19T04:23:43.396Z,103480.41
2023-04-19T04:26:10.117Z,103479.50
2023-04-19T04:28:36.744Z,103472.53
2023-04-19T04:31:03.362Z,103473.53
2023-04-19T04:33:30.008Z,103463.16
2023-04-19T04:35:57.890Z,103466.78
2023-04-19T04:38:25.722Z,103472.25
2023-04-19T04:40:57.017Z,103471.47
2023-04-19T04:43:25.816Z,103472.31
2023-04-19T04:45:55.659Z,103476.59
2023-04-19T04:48:22.550Z,103477.66
2023-04-19T04:50:49.364Z,103471.69
2023-04-19T04:53:16.252Z,103479.84
2023-04-19T04:55:42.907Z,103480.03
2023-04-19T04:58:09.588Z,103475.78
2023-04-19T05:00:36.507Z,103474.13
2023-04-19T05:03:03.452Z,103476.91
2023-04-19T05:05:30.365Z,103481.41
2023-04-19T05:07:57.118Z,103480.66
2023-04-19T05:10:23.782Z,103477.16
2023-04-19T05:12:50.453Z,103479.06
2023-04-19T05:15:17.093Z,103481.72
2023-04-19T05:17:43.819Z,103489.75
2023-04-19T05:20:11.003Z,103480.19
2023-04-19T05:22:38.346Z,103484.69
2023-04-19T05:25:06.883Z,103485.78
2023-04-19T05:27:33.492Z,103484.22
2023-04-19T05:30:00.193Z,103479.13
2023-04-19T05:32:27.599Z,103486.31
2023-04-19T05:34:54.277Z,103486.47
2023-04-19T05:37:21.031Z,103477.75
2023-04-19T05:39:47.676Z,103484.03
2023-04-19T05:42:14.398Z,103491.28
2023-04-19T05:44:41.011Z,103491.47
2023-04-19T05:47:07.698Z,103494.28
2023-04-19T05:49:34.389Z,103486.59
2023-04-19T05:52:01.016Z,103488.59
2023-04-19T05:54:28.532Z,103489.56
2023-04-19T05:56:55.216Z,103493.28
2023-04-19T05:59:21.863Z,103493.47
2023-04-19T06:01:48.628Z,103491.91
2023-04-19T06:04:16.094Z,103495.53
2023-04-19T06:06:43.082Z,103492.22
2023-04-19T06:09:09.707Z,103498.56
2023-04-19T06:11:46.958Z,103490.91
2023-04-19T06:14:17.284Z,103496.41
2023-04-19T06:16:44.358Z,103494.88
2023-04-19T06:19:11.037Z,103493.34
2023-04-19T06:21:37.736Z,103497.06
2023-04-19T06:24:05.709Z,103495.53
2023-04-19T06:26:32.361Z,103497.50
2023-04-19T06:28:59.096Z,103494.94
2023-04-19T06:31:25.909Z,103501.28
2023-04-19T06:33:52.614Z,103501.56
2023-04-19T06:36:19.296Z,103496.53
2023-04-19T06:38:46.354Z,103493.22
2023-04-19T06:41:13.389Z,103494.38
2023-04-19T06:43:40.963Z,103494.53
2023-04-19T06:46:07.925Z,103491.19
2023-04-19T06:48:35.196Z,103495.03
2023-04-19T06:51:01.978Z,103493.47
2023-04-19T06:53:28.637Z,103492.81
2023-04-19T06:56:01.253Z,103494.75
2023-04-19T06:58:28.707Z,103495.88
2023-04-19T07:00:55.690Z,103490.75
2023-04-19T07:03:22.754Z,103493.59
2023-04-19T07:05:50.014Z,103486.75
2023-04-19T07:08:16.653Z,103486.06
2023-04-19T07:10:43.962Z,103479.16
2023-04-19T07:13:13.664Z,103486.34
2023-04-19T07:15:40.350Z,103487.47
2023-04-19T07:18:07.546Z,103486.81
2023-04-19T07:20:34.317Z,103484.41
2023-04-19T07:23:01.044Z,103477.53
2023-04-19T07:25:27.869Z,103481.28
2023-04-19T07:27:55.022Z,103483.25
2023-04-19T07:30:21.744Z,103480.78
2023-04-19T07:32:48.649Z,103482.66
2023-04-19T07:35:15.439Z,103468.69
2023-04-19T07:37:42.663Z,103471.47
2023-04-19T07:40:09.939Z,103475.13
2023-04-19T07:42:36.673Z,103479.69
2023-04-19T07:45:03.631Z,103476.28
2023-04-19T07:47:31.409Z,103476.38
2023-04-19T07:49:58.098Z,103466.81
2023-04-19T07:52:24.848Z,103469.56
2023-04-19T07:54:51.610Z,103474.97
2023-04-19T07:57:18.303Z,103469.78
2023-04-19T07:59:44.941Z,103464.59
2023-04-19T08:02:11.658Z,103465.56
2023-04-19T08:04:39.405Z,103471.00
2023-04-19T08:07:06.832Z,103468.44
2023-04-19T08:09:34.406Z,103458.78
2023-04-19T08:12:01.642Z,103455.41
2023-04-19T08:14:40.300Z,103458.19
2023-04-19T08:17:25.170Z,103457.44
2023-04-19T08:19:53.845Z,103453.19
2023-04-19T08:22:21.654Z,103454.16
2023-04-19T08:24:51.690Z,103450.63
2023-04-19T08:27:18.980Z,103444.38
2023-04-19T08:29:46.188Z,103440.72
2023-04-19T08:32:13.399Z,103450.28
2023-04-19T08:34:40.691Z,103446.56
2023-04-19T08:37:07.609Z,103448.06
2023-04-19T08:39:35.231Z,103447.78
2023-04-19T08:42:10.978Z,103438.63
2023-04-19T08:45:06.383Z,103441.06
2023-04-19T08:50:24.155Z,103443.78
2023-04-19T08:53:02.739Z,103442.13
2023-04-19T08:55:36.884Z,103444.03
2023-04-19T08:58:09.664Z,103444.19
2023-04-19T09:00:40.560Z,103435.41
2023-04-19T09:03:11.489Z,103440.78
2023-04-19T09:05:39.018Z,103441.72
2023-04-19T09:08:26.778Z,103429.28
2023-04-19T09:11:02.596Z,103420.31
2023-04-19T09:13:29.948Z,103430.78
2023-04-19T09:16:02.694Z,103424.13
2023-04-19T09:18:32.106Z,103424.53
2023-04-19T09:21:00.470Z,103423.16
2023-04-19T09:23:31.430Z,103414.78
2023-04-19T09:28:32.143Z,103413.28
2023-04-19T09:31:10.671Z,103417.72
2023-04-19T09:33:46.084Z,103411.63
2023-04-19T09:36:28.222Z,103404.72
2023-04-19T09:38:55.235Z,103395.91
2023-04-19T09:41:21.857Z,103397.81
2023-04-19T09:46:33.206Z,103386.50
2023-04-19T09:49:25.090Z,103390.00
2023-04-19T09:52:05.537Z,103398.88
2023-04-19T09:54:32.814Z,103394.28
2023-04-19T09:57:01.736Z,103387.00
2023-04-19T09:59:28.554Z,103392.41
2023-04-19T10:01:58.874Z,103387.00
2023-04-19T10:04:38.235Z,103381.59
2023-04-19T10:09:53.134Z,103369.19
2023-04-19T10:14:58.687Z,103378.56
2023-04-19T10:17:26.029Z,103369.66
2023-04-19T10:19:59.629Z,103374.03
2023-04-19T10:22:26.768Z,103369.41
2023-04-19T10:25:16.131Z,103359.63
2023-04-19T10:27:49.048Z,103361.38
2023-04-19T10:30:23.533Z,103363.03
2023-04-19T10:32:56.479Z,103357.59
2023-04-19T10:35:25.659Z,103373.63
2023-04-19T10:38:09.721Z,103357.59
2023-04-19T10:40:56.069Z,103364.59
2023-04-19T10:43:36.371Z,103353.75
2023-04-19T10:46:21.257Z,103353.88
2023-04-19T10:48:53.812Z,103347.66
2023-04-19T10:51:23.293Z,103351.97
2023-04-19T10:53:55.423Z,103351.84
2023-04-19T10:56:34.430Z,103336.66
2023-04-19T10:59:21.442Z,103343.63
2023-04-19T11:01:54.102Z,103332.78
2023-04-19T11:04:27.540Z,103342.34
2023-04-19T11:06:54.541Z,103343.09
2023-04-19T11:09:28.769Z,103334.03
2023-04-19T11:11:59.846Z,103328.63
2023-04-19T11:14:27.596Z,103326.13
2023-04-19T11:16:54.289Z,103333.38
2023-04-19T11:19:21.015Z,103331.56
2023-04-19T11:21:48.538Z,103333.31
2023-04-19T11:24:19.089Z,103334.16
2023-04-19T11:26:46.761Z,103334.19
2023-04-19T11:29:13.683Z,103330.66
2023-04-19T11:31:40.880Z,103341.28
2023-04-19T11:34:07.559Z,103336.47
2023-04-19T11:36:36.895Z,103330.78
2023-04-19T11:39:06.811Z,103333.41
2023-04-19T11:41:39.750Z,103325.34
2023-04-19T11:44:17.418Z,103317.44
2023-04-19T11:47:00.941Z,103321.31
2023-04-19T11:49:29.456Z,103328.28
2023-04-19T11:52:06.502Z,103329.91
2023-04-19T11:54:33.910Z,103323.41
2023-04-19T11:57:03.646Z,103314.28
2023-04-19T11:59:32.528Z,103308.63
2023-04-19T12:02:07.462Z,103306.63
2023-04-19T12:04:35.310Z,103307.41
2023-04-19T12:07:03.738Z,103301.03
2023-04-19T12:09:32.864Z,103310.88
2023-04-19T12:11:59.608Z,103307.50
2023-04-19T12:14:27.012Z,103310.19
2023-04-19T12:17:11.439Z,103308.31
2023-04-19T12:19:46.313Z,103304.94
2023-04-19T12:22:19.809Z,103307.78
2023-04-19T12:24:46.861Z,103303.91
2023-04-19T12:27:17.982Z,103292.78
2023-04-19T12:29:44.679Z,103299.88
2023-04-19T12:32:11.450Z,103292.44
2023-04-19T12:34:38.168Z,103282.47
2023-04-19T12:37:04.999Z,103284.59
2023-04-19T12:39:31.863Z,103281.09
2023-04-19T12:41:58.524Z,103288.78
2023-04-19T12:44:25.232Z,103286.75
2023-04-19T12:46:52.126Z,103279.31
2023-04-19T12:49:20.182Z,103269.31
2023-04-19T12:51:47.765Z,103265.56
2023-04-19T12:54:15.790Z,103266.91
2023-04-19T12:56:42.646Z,103275.31
2023-04-19T12:59:09.348Z,103268.75
2023-04-19T13:01:36.434Z,103260.72
2023-04-19T13:04:03.432Z,103268.78
2023-04-19T13:06:30.280Z,103270.63
2023-04-19T13:09:00.775Z,103264.44
2023-04-19T13:11:28.033Z,103269.88
2023-04-19T13:13:54.783Z,103272.72
2023-04-19T13:16:22.665Z,103266.69
2023-04-19T13:18:50.984Z,103257.91
2023-04-19T13:21:17.736Z,103259.13
2023-04-19T13:23:45.210Z,103252.41
2023-04-19T13:26:12.172Z,103246.47
2023-04-19T13:28:39.857Z,103243.09
2023-04-19T13:31:06.664Z,103245.97
2023-04-19T13:33:33.427Z,103251.63
2023-04-19T13:36:00.272Z,103239.47
2023-04-19T13:38:27.180Z,103237.88
2023-04-19T13:40:53.884Z,103239.78
2023-04-19T13:43:21.386Z,103228.53
2023-04-19T13:45:48.091Z,103240.41
2023-04-19T13:48:14.785Z,103239.59
2023-04-19T13:50:41.856Z,103232.69
2023-04-19T13:53:08.682Z,103226.66
2023-04-19T13:55:35.779Z,103221.50
2023-04-19T13:58:02.658Z,103224.25
2023-04-19T14:00:29.523Z,103225.22
2023-04-19T14:02:56.990Z,103216.44
2023-04-19T14:05:23.901Z,103222.75
2023-04-19T14:07:50.575Z,103224.63
2023-04-19T14:10:17.333Z,103221.13
2023-04-19T14:12:45.122Z,103224.13
2023-04-19T14:15:12.609Z,103221.56
2023-04-19T14:17:39.615Z,103216.22
2023-04-19T14:20:07.413Z,103208.84
2023-04-19T14:22:35.357Z,103213.09
2023-04-19T14:25:03.610Z,103209.28
2023-04-19T14:27:30.469Z,103209.91
2023-04-19T14:29:57.145Z,103208.50
2023-04-19T14:32:25.923Z,103203.34
2023-04-19T14:34:54.360Z,103204.50
2023-04-19T14:37:22.335Z,103195.88
2023-04-19T14:39:49.040Z,103203.50
2023-04-19T14:42:15.837Z,103200.41
2023-04-19T14:44:42.498Z,103196.53
2023-04-19T14:47:09.205Z,103189.19
2023-04-19T14:49:35.866Z,103205.91
2023-04-19T14:52:04.018Z,103208.13
2023-04-19T14:54:30.881Z,103208.56
2023-04-19T14:56:57.557Z,103194.78
2023-04-19T14:59:24.226Z,103195.41
2023-04-19T15:01:50.926Z,103186.41
2023-04-19T15:04:18.007Z,103198.91
2023-04-19T15:06:44.794Z,103190.63
2023-04-19T15:09:11.586Z,103194.16
2023-04-19T15:11:38.245Z,103188.88
2023-04-19T15:14:04.986Z,103185.78
2023-04-19T15:16:31.826Z,103185.50
2023-04-19T15:18:58.628Z,103184.31
2023-04-19T15:21:25.288Z,103180.41
2023-04-19T15:23:52.086Z,103185.44
2023-04-19T15:26:18.869Z,103186.88
2023-04-19T15:28:45.818Z,103189.13
2023-04-19T15:31:12.548Z,103183.09
2023-04-19T15:33:39.389Z,103176.31
2023-04-19T15:36:06.570Z,103182.75
2023-04-19T15:38:33.781Z,103181.16
2023-04-19T15:41:01.674Z,103178.78
2023-04-19T15:43:28.752Z,103176.19
2023-04-19T15:45:55.642Z,103167.25
2023-04-19T15:48:22.682Z,103169.66
2023-04-19T15:50:55.273Z,103174.56
2023-04-19T15:53:21.941Z,103174.00
2023-04-19T15:55:48.690Z,103169.22
2023-04-19T15:58:15.581Z,103163.78
2023-04-19T16:00:42.271Z,103159.59
2023-04-19T16:03:11.646Z,103156.44
2023-04-19T16:05:38.699Z,103170.13
2023-04-19T16:08:07.796Z,103162.38
2023-04-19T16:10:34.770Z,103161.09
2023-04-19T16:13:02.901Z,103164.06
2023-04-19T16:15:29.649Z,103157.16
2023-04-19T16:17:56.488Z,103156.16
2023-04-19T16:20:23.521Z,103161.19
2023-04-19T16:22:50.326Z,103152.13
2023-04-19T16:25:17.104Z,103151.09
2023-04-19T16:27:46.105Z,103157.97
2023-04-19T16:30:14.403Z,103156.78
2023-04-19T16:32:42.199Z,103153.97
2023-04-19T16:35:09.632Z,103163.81
2023-04-19T16:37:36.599Z,103159.56
2023-04-19T16:40:08.503Z,103155.59
2023-04-19T16:42:39.184Z,103157.91
2023-04-19T16:45:07.859Z,103162.03
2023-04-19T16:47:35.816Z,103157.22
2023-04-19T16:50:04.786Z,103155.84
2023-04-19T16:52:33.124Z,103148.03
2023-04-19T16:55:00.214Z,103155.34
2023-04-19T16:57:27.189Z,103160.16
2023-04-19T16:59:53.912Z,103164.91
2023-04-19T17:02:21.063Z,103160.75
2023-04-19T17:04:48.082Z,103168.09
2023-04-19T17:07:15.336Z,103169.25
2023-04-19T17:09:42.153Z,103170.31
2023-04-19T17:12:09.078Z,103162.53
2023-04-19T17:14:36.253Z,103163.66
2023-04-19T17:17:02.971Z,103166.53
2023-04-19T17:19:29.708Z,103170.31
2023-04-19T17:21:56.664Z,103166.06
2023-04-19T17:24:23.517Z,103171.53
2023-04-19T17:26:50.316Z,103166.38
2023-04-19T17:29:17.258Z,103171.91
2023-04-19T17:31:44.284Z,103174.69
2023-04-19T17:34:11.300Z,103176.63
2023-04-19T17:36:37.968Z,103175.84
2023-04-19T17:39:06.770Z,103177.72
2023-04-19T17:41:33.971Z,103170.72
2023-04-19T17:44:00.701Z,103181.53
2023-04-19T17:46:27.484Z,103186.13
2023-04-19T17:48:55.768Z,103190.69
2023-04-19T17:51:22.664Z,103188.94
2023-04-19T17:53:49.323Z,103187.28
2023-04-19T17:56:16.085Z,103182.91
2023-04-19T17:58:42.827Z,103176.84
2023-04-19T18:01:10.526Z,103185.78
2023-04-19T18:03:38.233Z,103187.59
2023-04-19T18:06:05.297Z,103194.72
2023-04-19T18:08:31.971Z,103181.50
2023-04-19T18:10:58.741Z,103184.25
2023-04-19T18:13:25.530Z,103184.25
2023-04-19T18:15:52.416Z,103187.00
2023-04-19T18:18:19.057Z,103187.03
2023-04-19T18:20:45.747Z,103182.63
2023-04-19T18:23:12.498Z,103183.56
2023-04-19T18:25:39.714Z,103184.47
2023-04-19T18:28:06.796Z,103188.03
2023-04-19T18:30:33.889Z,103188.03
2023-04-19T18:33:00.707Z,103182.78
2023-04-19T18:35:27.484Z,103192.56
2023-04-19T18:37:54.224Z,103184.66
2023-04-19T18:40:21.063Z,103194.41
2023-04-19T18:42:47.750Z,103195.28
2023-04-19T18:45:14.648Z,103200.63
2023-04-19T18:47:42.051Z,103198.84
2023-04-19T18:50:09.666Z,103202.41
2023-04-19T18:52:36.877Z,103206.84
2023-04-19T18:55:07.356Z,103201.56
2023-04-19T18:57:35.390Z,103202.47
2023-04-19T19:00:06.039Z,103206.00
2023-04-19T19:02:34.566Z,103212.22
2023-04-19T19:05:02.307Z,103207.78
2023-04-19T19:07:36.120Z,103209.59
2023-04-19T19:10:17.004Z,103206.03
2023-04-19T19:12:45.721Z,103201.59
2023-04-19T19:15:13.167Z,103209.56
2023-04-19T19:17:39.960Z,103211.34
2023-04-19T19:20:07.458Z,103213.13
2023-04-19T19:22:34.874Z,103213.97
2023-04-19T19:25:02.229Z,103211.34
2023-04-19T19:27:29.304Z,103221.94
2023-04-19T19:29:56.099Z,103214.84
2023-04-19T19:32:23.110Z,103210.41
2023-04-19T19:34:56.320Z,103218.38
2023-04-19T19:37:27.751Z,103220.13
2023-04-19T19:39:56.428Z,103220.09
2023-04-19T19:42:24.068Z,103217.41
2023-04-19T19:44:55.413Z,103216.47
2023-04-19T19:47:23.836Z,103217.34
2023-04-19T19:50:33.676Z,103220.84
2023-04-19T19:52:38.019Z,103211.97
2023-04-19T19:55:05.419Z,103219.00
2023-04-19T19:58:18.632Z,103225.19
2023-04-19T20:00:41.999Z,103224.28
2023-04-19T20:03:06.633Z,103220.72
2023-04-19T20:05:34.137Z,103218.06
2023-04-19T20:08:12.625Z,103217.19
2023-04-19T20:10:41.652Z,103226.03
2023-04-19T20:13:08.645Z,103233.13
2023-04-19T20:15:36.946Z,103226.91
2023-04-19T20:18:05.331Z,103229.53
2023-04-19T20:20:32.133Z,103226.88
2023-04-19T20:22:58.822Z,103233.94
2023-04-19T20:25:25.766Z,103233.88
2023-04-19T20:27:52.594Z,103237.38
2023-04-19T20:30:19.259Z,103236.41
2023-04-19T20:32:46.134Z,103233.66
2023-04-19T20:35:12.884Z,103240.66
2023-04-19T20:37:40.199Z,103228.16
2023-04-19T20:40:10.015Z,103231.63
2023-04-19T20:42:36.719Z,103240.41
2023-04-19T20:45:03.854Z,103238.66
2023-04-19T20:47:32.202Z,103241.22
2023-04-19T20:49:58.936Z,103242.03
2023-04-19T20:52:25.656Z,103239.31
2023-04-19T20:54:52.348Z,103240.09
2023-04-19T20:57:19.025Z,103236.53
2023-04-19T20:59:47.194Z,103243.56
2023-04-19T21:02:13.930Z,103247.94
2023-04-19T21:04:42.322Z,103245.25
2023-04-19T21:07:09.465Z,103237.19
2023-04-19T21:09:36.279Z,103237.09
2023-04-19T21:12:02.959Z,103246.66
2023-04-19T21:14:35.570Z,103238.69
2023-04-19T21:17:03.549Z,103243.09
2023-04-19T21:19:30.574Z,103244.81
2023-04-19T21:21:58.613Z,103236.00
2023-04-19T21:24:25.629Z,103246.56
2023-04-19T21:26:52.285Z,103241.25
2023-04-19T21:29:20.479Z,103244.72
2023-04-19T21:31:47.630Z,103250.84
2023-04-19T21:34:14.395Z,103240.19
2023-04-19T21:36:41.068Z,103248.06
2023-04-19T21:39:08.714Z,103247.09
2023-04-19T21:41:36.019Z,103240.97
2023-04-19T21:44:02.694Z,103235.72
2023-04-19T21:46:29.396Z,103236.53
2023-04-19T21:48:56.334Z,103239.91
2023-04-19T21:51:22.994Z,103237.16
2023-04-19T21:53:49.678Z,103230.03
2023-04-19T21:56:16.581Z,103228.16
2023-04-19T21:58:43.339Z,103231.59
2023-04-19T22:01:10.842Z,103230.59
2023-04-19T22:03:37.905Z,103230.53
2023-04-19T22:06:05.044Z,103227.69
2023-04-19T22:08:33.025Z,103226.56
2023-04-19T22:11:00.516Z,103234.34
2023-04-19T22:13:28.470Z,103225.41
2023-04-19T22:15:57.375Z,103217.38
2023-04-19T22:18:24.347Z,103226.25
2023-04-19T22:20:52.205Z,103218.44
2023-04-19T22:23:19.261Z,103221.13
2023-04-19T22:25:46.267Z,103223.72
2023-04-19T22:28:13.260Z,103227.13
2023-04-19T22:30:39.957Z,103226.13
2023-04-19T22:33:06.730Z,103227.81
2023-04-19T22:35:33.455Z,103217.19
2023-04-19T22:38:00.141Z,103226.00
2023-04-19T22:40:26.902Z,103228.69
2023-04-19T22:42:53.655Z,103232.22
2023-04-19T22:45:20.386Z,103228.75
2023-04-19T22:47:47.324Z,103236.63
2023-04-19T22:50:14.250Z,103232.09
2023-04-19T22:52:41.589Z,103232.91
2023-04-19T22:55:08.877Z,103227.50
2023-04-19T22:57:35.593Z,103228.28
2023-04-19T23:00:03.151Z,103221.31
2023-04-19T23:02:29.902Z,103221.41
2023-04-19T23:04:58.853Z,103223.22
2023-04-19T23:07:26.173Z,103226.81
2023-04-19T23:09:54.891Z,103228.53
2023-04-19T23:12:23.125Z,103226.81
2023-04-19T23:14:50.639Z,103221.53
2023-04-19T23:17:18.162Z,103223.28
2023-04-19T23:19:44.954Z,103215.31
2023-04-19T23:22:11.684Z,103215.19
2023-04-19T23:24:38.576Z,103208.97
2023-04-19T23:27:05.267Z,103215.06
2023-04-19T23:29:31.940Z,103210.72
2023-04-19T23:31:58.880Z,103214.94
2023-04-19T23:34:25.553Z,103211.09
2023-04-19T23:36:52.261Z,103207.22
2023-04-19T23:39:19.383Z,103206.91
2023-04-19T23:41:46.327Z,103212.72
2023-04-19T23:44:13.208Z,103208.84
2023-04-19T23:46:39.985Z,103205.03
2023-04-19T23:49:08.377Z,103206.69
2023-04-19T23:51:35.020Z,103208.59
2023-04-19T23:54:01.843Z,103199.97
2023-04-19T23:56:28.522Z,103194.69
2023-04-19T23:58:55.555Z,103203.31
